Time;durP1;ratioP1;P1;durP2;ratioP2;P2;SDS_P1;SDS_P2;PMS_P1;PMS_P2;Temp;Humidity;BMP_temperature;BMP_pressure;BME280_temperature;BME280_humidity;BME280_pressure;Samples;Min_cycle;Max_cycle;Signal;HPM_P1;HPM_P2
2022/08/24 00:00:21;;;;;;;4.25;2.33;;;;;;;20.78;59.61;93682.56;4878782;29;20072;-91
2022/08/24 00:02:50;;;;;;;5.93;2.05;;;;;;;20.81;59.27;93678.00;4875201;29;20098;-90
2022/08/24 00:05:39;;;;;;;3.92;2.08;;;;;;;20.78;59.61;93679.81;4820679;29;20145;-91
2022/08/24 00:08:06;;;;;;;3.42;2.05;;;;;;;20.77;59.49;93663.84;4915142;23;20049;-91
2022/08/24 00:10:40;;;;;;;5.78;2.42;;;;;;;20.79;59.60;93673.03;4885966;23;20020;-90
2022/08/24 00:13:05;;;;;;;2.95;1.95;;;;;;;20.78;59.45;93668.06;4894815;29;20065;-92
2022/08/24 00:15:35;;;;;;;3.65;2.20;;;;;;;20.79;59.52;93664.03;4862390;29;20044;-90
2022/08/24 00:18:02;;;;;;;3.22;2.13;;;;;;;20.78;59.53;93668.81;4890325;29;20113;-91
2022/08/24 00:20:28;;;;;;;3.28;2.10;;;;;;;20.75;59.49;93675.34;4842857;29;20062;-91
2022/08/24 00:22:54;;;;;;;2.92;1.80;;;;;;;20.77;59.50;93667.34;4825188;29;20042;-91
2022/08/24 00:25:20;;;;;;;3.40;1.70;;;;;;;20.76;59.35;93659.59;4839383;29;20046;-91
2022/08/24 00:27:48;;;;;;;2.65;1.63;;;;;;;20.80;59.42;93662.78;4825292;29;20051;-92
2022/08/24 00:30:15;;;;;;;3.08;1.83;;;;;;;20.77;59.44;93658.34;4836763;29;20042;-91
2022/08/24 00:32:53;;;;;;;3.83;2.03;;;;;;;20.77;59.41;93659.09;4814513;29;20027;-91
2022/08/24 00:35:19;;;;;;;2.67;1.60;;;;;;;20.78;59.42;93662.59;4868050;29;20555;-91
2022/08/24 00:37:53;;;;;;;3.17;1.73;;;;;;;20.79;59.34;93651.03;4878283;29;20081;-91
2022/08/24 00:40:36;;;;;;;3.75;2.33;;;;;;;20.77;59.45;93656.34;4829100;29;20084;-91
2022/08/24 00:43:31;;;;;;;3.33;1.92;;;;;;;20.79;59.44;93658.53;4849442;29;20037;-90
2022/08/24 00:46:41;;;;;;;2.30;1.30;;;;;;;20.79;59.27;93655.78;4869824;29;20041;-90
2022/08/24 00:49:28;;;;;;;2.83;1.55;;;;;;;20.78;59.55;93663.31;4903070;23;20055;-91
2022/08/24 00:52:10;;;;;;;2.50;1.58;;;;;;;20.78;59.58;93663.31;4901685;29;20070;-90
2022/08/24 00:54:46;;;;;;;2.40;1.40;;;;;;;20.78;59.41;93663.31;4897950;29;20204;-90
2022/08/24 00:57:17;;;;;;;3.53;1.90;;;;;;;20.78;59.48;93665.34;4898756;29;20040;-90
2022/08/24 00:59:59;;;;;;;2.45;1.60;;;;;;;20.77;59.50;93663.84;4896497;29;20044;-90
2022/08/24 01:02:51;;;;;;;3.17;1.80;;;;;;;20.80;59.25;93662.78;4887607;29;20078;-91
2022/08/24 01:05:18;;;;;;;2.22;1.73;;;;;;;20.78;59.36;93662.59;4922353;29;20059;-91
2022/08/24 01:07:43;;;;;;;2.55;1.23;;;;;;;20.76;59.35;93665.84;4894691;23;20068;-91
2022/08/24 01:10:12;;;;;;;3.47;1.73;;;;;;;20.78;59.17;93665.34;4859079;29;20072;-90
2022/08/24 01:12:38;;;;;;;3.20;1.73;;;;;;;20.76;59.27;93667.84;4871065;29;20037;-91
2022/08/24 01:15:07;;;;;;;3.10;1.60;;;;;;;20.77;59.43;93666.59;4829765;29;20042;-91
2022/08/24 01:20:35;;;;;;;3.20;1.95;;;;;;;20.80;59.26;93658.03;4878599;29;20061;-92
2022/08/24 01:23:30;;;;;;;4.13;1.90;;;;;;;20.79;59.26;93662.03;4835156;29;20037;-91
2022/08/24 01:25:55;;;;;;;;;;;;;;;20.83;59.18;93667.25;4898144;23;20041;-91
2022/08/24 01:28:25;;;;;;;2.83;1.67;;;;;;;20.79;59.19;93653.06;4898190;29;19930;-90
2022/08/24 01:30:51;;;;;;;1.95;1.45;;;;;;;20.78;59.23;93657.09;4858835;29;20054;-90
2022/08/24 01:33:27;;;;;;;2.08;1.52;;;;;;;20.78;59.21;93657.09;4843922;29;20049;-92
2022/08/24 01:35:57;;;;;;;2.00;1.50;;;;;;;20.78;59.33;93657.84;4873397;29;20041;-91
2022/08/24 01:38:27;;;;;;;2.80;1.60;;;;;;;20.80;59.32;93658.03;4833627;29;20049;-91
2022/08/24 01:41:09;;;;;;;2.65;1.60;;;;;;;20.80;59.26;93660.03;4911584;23;20060;-91
2022/08/24 01:43:42;;;;;;;2.45;1.60;;;;;;;20.80;59.21;93654.53;4876578;29;20045;-90
2022/08/24 01:46:09;;;;;;;2.65;1.60;;;;;;;20.78;59.13;93654.34;4908088;29;20088;-91
2022/08/24 01:48:35;;;;;;;2.55;1.38;;;;;;;20.77;59.18;93652.84;4870503;29;20100;-90
2022/08/24 01:51:01;;;;;;;3.88;1.38;;;;;;;20.80;59.20;93660.03;4901609;23;20049;-91
2022/08/24 01:53:33;;;;;;;2.03;1.50;;;;;;;20.77;59.09;93655.59;4882383;29;20074;-90
2022/08/24 01:56:01;;;;;;;1.50;1.25;;;;;;;20.76;59.24;93651.38;4899563;29;20036;-91
2022/08/24 01:58:45;;;;;;;2.78;1.60;;;;;;;20.77;59.11;93644.63;4893494;29;20693;-91
2022/08/24 02:01:45;;;;;;;3.58;1.30;;;;;;;20.79;59.21;93653.06;4886071;23;20041;-92
2022/08/24 02:04:12;;;;;;;2.10;1.63;;;;;;;20.79;58.76;93666.78;4864951;29;20048;-91
2022/08/24 02:06:39;;;;;;;2.75;1.80;;;;;;;20.76;59.27;93665.84;4877050;29;20038;-90
2022/08/24 02:09:05;;;;;;;4.13;1.42;;;;;;;20.78;59.29;93671.56;4876991;29;20037;-90
2022/08/24 02:11:56;;;;;;;2.40;1.65;;;;;;;20.78;59.45;93668.06;4853520;29;20038;-91
2022/08/24 02:14:24;;;;;;;1.73;1.40;;;;;;;20.80;59.09;93671.03;4853276;29;20100;-93
2022/08/24 02:16:52;;;;;;;1.63;1.40;;;;;;;20.79;59.14;93675.78;4830855;29;20038;-90
2022/08/24 02:19:18;;;;;;;3.03;1.65;;;;;;;20.77;59.25;93681.06;4854108;29;20052;-91
2022/08/24 02:21:43;;;;;;;2.45;1.23;;;;;;;20.78;59.20;93679.06;4873973;23;20056;-91
2022/08/24 02:24:10;;;;;;;3.85;1.73;;;;;;;20.78;59.16;93679.06;4843051;29;20018;-90
2022/08/24 02:26:35;;;;;;;2.47;1.55;;;;;;;20.77;59.20;93677.59;4853213;29;20033;-92
2022/08/24 02:29:20;;;;;;;2.63;1.27;;;;;;;20.78;59.13;93679.06;4879161;23;20056;-92
2022/08/24 02:31:47;;;;;;;1.75;1.02;;;;;;;20.80;59.02;93673.78;4870376;29;20045;-90
2022/08/24 02:34:32;;;;;;;2.58;1.33;;;;;;;20.77;58.82;93675.56;4862000;29;20017;-92
2022/08/24 02:37:00;;;;;;;2.55;1.40;;;;;;;20.81;58.78;93678.00;4852122;29;20045;-90
2022/08/24 02:39:28;;;;;;;2.35;1.33;;;;;;;20.79;59.00;93683.28;4866846;29;20045;-91
2022/08/24 02:44:42;;;;;;;2.08;1.40;;;;;;;20.81;58.82;93697.25;4886755;23;20050;-91
2022/08/24 02:47:10;;;;;;;1.40;1.17;;;;;;;20.80;58.76;93684.75;4853991;29;20049;-91
2022/08/24 02:49:36;;;;;;;2.40;1.30;;;;;;;20.77;58.90;93689.31;4857115;29;20034;-91
2022/08/24 02:52:09;;;;;;;2.13;1.58;;;;;;;20.77;58.79;93691.31;4855062;29;20109;-91
2022/08/24 02:54:42;;;;;;;1.77;1.33;;;;;;;20.78;59.00;93695.56;4851564;29;20041;-91
2022/08/24 02:57:17;;;;;;;2.63;1.20;;;;;;;20.78;59.13;93692.81;4877482;29;20045;-91
2022/08/24 02:59:52;;;;;;;3.05;1.30;;;;;;;20.77;58.89;93680.31;4886761;29;20528;-90
2022/08/24 03:02:19;;;;;;;1.15;0.98;;;;;;;20.80;59.12;93682.00;4797323;29;20177;-91
2022/08/24 03:04:45;;;;;;;2.03;1.08;;;;;;;20.76;59.11;93693.31;4848006;29;20054;-91
2022/08/24 03:07:13;;;;;;;1.67;1.20;;;;;;;20.79;58.96;93689.50;4819657;29;20039;-90
2022/08/24 03:09:38;;;;;;;2.22;1.00;;;;;;;20.79;58.80;93675.03;4818849;29;20555;-91
2022/08/24 03:12:07;;;;;;;2.55;1.25;;;;;;;20.77;59.01;93669.34;4816875;29;20043;-90
2022/08/24 03:14:34;;;;;;;1.95;1.30;;;;;;;20.77;58.97;93672.09;4819580;29;20126;-90
2022/08/24 03:17:08;;;;;;;1.52;1.10;;;;;;;20.76;58.96;93668.59;4798465;29;20047;-91
2022/08/24 03:19:35;;;;;;;2.03;1.20;;;;;;;20.80;58.79;93682.75;4804538;29;20046;-90
2022/08/24 03:22:00;;;;;;;1.90;1.23;;;;;;;20.78;59.35;93676.31;4788996;29;20074;-91
2022/08/24 03:24:28;;;;;;;1.88;1.20;;;;;;;20.78;58.74;93666.06;4785875;29;20543;-92
2022/08/24 03:27:14;;;;;;;1.10;0.90;;;;;;;20.77;58.97;93677.59;4799018;29;20047;-91
2022/08/24 03:29:44;;;;;;;1.10;0.90;;;;;;;20.76;58.86;93676.09;4800853;29;20614;-90
2022/08/24 03:32:14;;;;;;;3.03;1.20;;;;;;;20.78;59.04;93676.31;4793635;29;20084;-91
2022/08/24 03:34:45;;;;;;;1.80;0.95;;;;;;;20.73;59.03;93680.63;4773414;29;20081;-91
2022/08/24 03:37:19;;;;;;;2.38;1.17;;;;;;;20.76;58.94;93685.09;4782548;30;20047;-91
2022/08/24 03:39:46;;;;;;;1.52;1.10;;;;;;;20.75;59.00;93683.59;4782128;30;20066;-92
2022/08/24 03:42:16;;;;;;;1.77;1.17;;;;;;;20.75;58.86;93683.59;4799479;29;20103;-92
2022/08/24 03:44:41;;;;;;;1.40;1.00;;;;;;;20.75;58.83;93686.34;4831790;24;20126;-91
2022/08/24 03:47:09;;;;;;;1.65;1.15;;;;;;;20.76;58.81;93676.84;4869559;29;20041;-93
2022/08/24 03:49:36;;;;;;;2.15;1.35;;;;;;;20.77;59.13;93678.31;4854818;29;20034;-92
2022/08/24 03:52:05;;;;;;;1.88;1.05;;;;;;;20.78;58.84;93687.31;4862986;29;20066;-90
2022/08/24 03:54:41;;;;;;;2.40;1.23;;;;;;;20.77;58.89;93689.31;4855549;29;20045;-91
2022/08/24 03:57:07;;;;;;;1.23;0.80;;;;;;;20.77;58.61;93696.81;4851183;29;20042;-91
2022/08/24 03:59:52;;;;;;;1.92;1.05;;;;;;;20.77;58.97;93694.81;4848438;29;20049;-94
2022/08/24 04:03:03;;;;;;;2.80;1.40;;;;;;;20.78;58.83;93695.56;4851035;29;20037;-92
2022/08/24 04:05:57;;;;;;;2.60;1.40;;;;;;;20.76;58.83;93693.31;5130385;23;20084;-94
2022/08/24 04:08:23;;;;;;;1.52;1.00;;;;;;;20.78;58.68;93692.81;4910275;23;20042;-92
2022/08/24 04:10:50;;;;;;;1.92;1.10;;;;;;;20.78;59.13;93698.31;4832002;29;20046;-91
2022/08/24 04:13:31;;;;;;;2.75;1.20;;;;;;;20.77;58.74;93699.56;4838727;29;20054;-91
2022/08/24 04:16:16;;;;;;;2.22;1.20;;;;;;;20.79;58.87;93694.25;4817600;29;20049;-94
2022/08/24 04:18:46;;;;;;;1.42;1.00;;;;;;;20.80;58.90;93693.00;4821267;29;20038;-92
2022/08/24 04:21:29;;;;;;;3.08;1.13;;;;;;;20.79;58.89;93697.75;4828602;29;20043;-91
2022/08/24 04:23:56;;;;;;;1.38;0.85;;;;;;;20.80;58.82;93691.00;4841724;29;20114;-94
2022/08/24 04:26:25;;;;;;;3.33;1.38;;;;;;;20.81;58.66;93687.00;4833683;29;20111;-90
2022/08/24 04:28:53;;;;;;;1.75;0.93;;;;;;;20.82;58.78;93684.97;4841679;29;20054;-92
2022/08/24 04:31:51;;;;;;;20.38;2.58;;;;;;;20.82;59.16;93695.97;4836845;29;20046;-89
2022/08/24 04:34:17;;;;;;;15.07;9.10;;;;;;;20.82;59.07;93687.72;4785436;29;20055;-92
2022/08/24 04:36:46;;;;;;;3.38;1.58;;;;;;;20.84;59.17;93696.94;4780765;30;20054;-89
2022/08/24 04:39:13;;;;;;;6.70;3.75;;;;;;;20.88;59.15;93697.41;4780353;29;21002;-89
2022/08/24 04:41:51;;;;;;;66.57;20.95;;;;;;;20.95;59.09;93696.06;4766591;30;20062;-91
2022/08/24 04:44:18;;;;;;;10.68;6.35;;;;;;;20.93;59.15;93701.34;4754261;29;20070;-91
2022/08/24 04:46:44;;;;;;;23.60;11.15;;;;;;;21.00;59.14;93705.50;4730083;30;20050;-94
2022/08/24 04:49:12;;;;;;;12.50;8.00;;;;;;;20.99;58.46;93710.25;4741867;29;20048;-90
2022/08/24 04:51:38;;;;;;;11.35;7.07;;;;;;;20.92;58.77;93724.59;4780127;29;20045;-94
2022/08/24 04:54:05;;;;;;;14.35;6.97;;;;;;;20.90;59.21;93729.09;4747965;30;20048;-93
2022/08/24 04:56:30;;;;;;;27.30;8.15;;;;;;;20.84;59.93;93731.91;4758790;29;20614;-94
2022/08/24 04:59:01;;;;;;;43.50;11.20;;;;;;;20.83;60.12;93733.19;4735399;30;20040;-93
2022/08/24 05:01:31;;;;;;;40.85;10.23;;;;;;;20.83;60.25;93735.94;4732819;30;20134;-94
2022/08/24 05:03:57;;;;;;;34.53;11.93;;;;;;;20.77;60.59;93730.53;4741218;30;20071;-91
2022/08/24 05:06:27;;;;;;;24.00;10.52;;;;;;;20.75;60.79;93737.78;4728869;29;20064;-93
2022/08/24 05:08:57;;;;;;;27.45;10.02;;;;;;;20.73;60.81;93730.06;4736964;30;20552;-92
2022/08/24 05:11:23;;;;;;;26.63;10.45;;;;;;;20.70;61.11;93736.59;4734611;29;20084;-92
2022/08/24 05:13:52;;;;;;;32.47;12.40;;;;;;;20.70;60.97;93727.63;4762930;29;20118;-92
2022/08/24 05:16:27;;;;;;;30.67;11.40;;;;;;;20.67;61.05;93734.13;4794747;29;21430;-93
2022/08/24 05:18:54;;;;;;;35.05;13.23;;;;;;;20.61;61.76;93728.72;4810582;29;20056;-93
2022/08/24 05:21:21;;;;;;;29.60;12.10;;;;;;;20.65;61.54;93728.41;4811396;29;20443;-90
2022/08/24 05:23:47;;;;;;;25.42;10.20;;;;;;;20.61;61.62;93734.19;4798095;29;20125;-91
2022/08/24 05:26:18;;;;;;;24.20;9.77;;;;;;;20.60;61.61;93731.97;4813768;29;20047;-89
2022/08/24 05:28:43;;;;;;;25.73;11.80;;;;;;;20.60;61.45;93718.97;4808504;29;20076;-90
2022/08/24 05:31:11;;;;;;;19.10;10.30;;;;;;;20.62;61.66;93727.44;4798572;29;20103;-91
2022/08/24 05:33:38;;;;;;;31.52;11.02;;;;;;;20.62;61.91;93729.44;4824616;29;20962;-91
2022/08/24 05:36:17;;;;;;;16.88;10.63;;;;;;;20.58;62.06;93723.50;4812919;29;20062;-92
2022/08/24 05:38:42;;;;;;;27.90;10.48;;;;;;;20.58;61.99;93726.25;4799323;29;20136;-90
2022/08/24 05:41:08;;;;;;;27.13;14.63;;;;;;;20.61;61.95;93734.19;4801273;29;20037;-91
2022/08/24 05:43:38;;;;;;;35.20;15.45;;;;;;;20.59;62.14;93725.72;4824679;29;20039;-90
2022/08/24 05:46:04;;;;;;;29.08;13.50;;;;;;;20.57;62.10;93719.28;4822873;29;20053;-91
2022/08/24 05:48:30;;;;;;;31.05;14.13;;;;;;;20.59;62.03;93725.72;4805686;29;20046;-90
2022/08/24 05:50:57;;;;;;;38.35;20.83;;;;;;;20.66;61.93;93729.91;4815666;29;20041;-92
2022/08/24 05:53:24;;;;;;;25.60;14.90;;;;;;;20.59;62.20;93735.97;4779182;29;20079;-93
2022/08/24 05:55:49;;;;;;;27.88;12.38;;;;;;;20.55;62.37;93728.06;4771597;29;20057;-89
2022/08/24 05:58:15;;;;;;;64.65;28.88;;;;;;;20.56;62.21;93740.53;4750844;29;20039;-89
2022/08/24 06:00:41;;;;;;;78.82;37.90;;;;;;;20.57;62.69;93731.00;4761584;29;20047;-90
2022/08/24 06:03:07;;;;;;;64.45;31.60;;;;;;;20.63;62.87;93736.44;4778438;29;20063;-89
2022/08/24 06:05:38;;;;;;;61.15;28.92;;;;;;;20.59;63.24;93739.47;4773781;29;20120;-87
2022/08/24 06:08:04;;;;;;;48.38;21.15;;;;;;;20.58;62.84;93729.00;4789169;29;20046;-90
2022/08/24 06:10:30;;;;;;;44.53;20.35;;;;;;;20.64;63.20;93743.41;4792055;29;20051;-91
2022/08/24 06:12:57;;;;;;;33.28;17.45;;;;;;;20.66;62.77;93732.66;4768563;29;20078;-90
2022/08/24 06:15:22;;;;;;;33.88;14.65;;;;;;;20.67;62.87;93743.13;4726521;30;21090;-88
2022/08/24 06:18:10;;;;;;;23.33;13.38;;;;;;;20.63;63.00;93736.44;4777916;29;20138;-91
2022/08/24 06:20:41;;;;;;;24.48;13.23;;;;;;;20.66;62.53;93730.66;4775575;29;20070;-88
2022/08/24 06:23:07;;;;;;;26.02;12.93;;;;;;;20.67;62.66;93732.13;4808528;29;20038;-90
2022/08/24 06:28:16;;;;;;;43.60;16.23;;;;;;;20.64;62.94;93727.69;4809630;29;20040;-89
2022/08/24 06:30:43;;;;;;;71.28;18.85;;;;;;;20.66;62.87;93732.66;4788972;29;20038;-91
2022/08/24 06:33:10;;;;;;;49.15;15.65;;;;;;;20.64;63.12;93729.69;4786821;29;20038;-92
2022/08/24 06:35:35;;;;;;;70.15;17.50;;;;;;;20.60;62.95;93727.22;4796716;29;20795;-93
2022/08/24 06:38:01;;;;;;;47.80;15.90;;;;;;;20.66;62.91;93724.41;4814578;29;20050;-92
2022/08/24 06:40:27;;;;;;;38.83;13.27;;;;;;;20.59;62.87;93733.97;4806810;29;20051;-92
2022/08/24 06:42:52;;;;;;;34.95;12.82;;;;;;;20.61;62.86;93725.97;4791853;29;20057;-94
2022/08/24 06:45:18;;;;;;;52.33;13.35;;;;;;;20.67;62.65;93725.91;4797281;29;20057;-92
2022/08/24 06:47:43;;;;;;;41.70;16.05;;;;;;;20.60;63.07;93721.72;4815266;29;20045;-94
2022/08/24 06:50:11;;;;;;;43.97;15.65;;;;;;;20.57;63.19;93720.00;4844465;29;20045;-90
2022/08/24 06:52:38;;;;;;;41.65;15.82;;;;;;;20.62;63.20;93729.44;4845605;29;20056;-94
2022/08/24 06:55:10;;;;;;;34.53;14.63;;;;;;;20.61;63.24;93728.72;4852919;29;20608;-90
2022/08/24 06:57:40;;;;;;;35.88;15.40;;;;;;;20.61;63.18;93733.47;4851335;29;20093;-89
2022/08/24 07:00:06;;;;;;;62.13;19.80;;;;;;;20.61;62.98;93722.47;4845504;29;20869;-91
2022/08/24 07:02:33;;;;;;;38.58;17.17;;;;;;;20.63;62.78;93728.19;4839725;29;20122;-92
2022/08/24 07:04:59;;;;;;;48.10;20.98;;;;;;;20.63;62.84;93730.94;4838819;29;20053;-93
2022/08/24 07:07:25;;;;;;;48.10;18.80;;;;;;;20.65;62.67;93734.66;4804470;29;20585;-93
2022/08/24 07:09:50;;;;;;;33.72;16.90;;;;;;;20.65;62.63;93731.91;4809627;29;20057;-89
2022/08/24 07:12:16;;;;;;;42.10;16.58;;;;;;;20.66;62.41;93727.16;4814635;29;20125;-94
2022/08/24 07:14:45;;;;;;;34.63;16.45;;;;;;;20.63;62.85;93736.44;4796670;29;20127;-94
2022/08/24 07:17:32;;;;;;;35.88;14.48;;;;;;;20.67;62.94;93739.63;4811270;29;20038;-94
2022/08/24 07:20:24;;;;;;;;;;;;;;;;;;;;;
2022/08/24 07:23:05;;;;;;;44.03;18.17;;;;;;;20.72;62.71;93738.84;4793971;29;20058;-93
2022/08/24 07:25:31;;;;;;;34.67;16.08;;;;;;;20.68;62.69;93741.13;4790269;29;20134;-91
2022/08/24 07:27:59;;;;;;;29.08;14.80;;;;;;;20.71;62.44;93740.84;4792511;29;20051;-93
2022/08/24 07:30:31;;;;;;;49.30;17.17;;;;;;;20.71;62.96;93740.09;4748296;29;20056;-92
2022/08/24 07:32:59;;;;;;;28.42;12.38;;;;;;;20.73;62.68;93741.06;4757569;30;20052;-93
2022/08/24 07:35:27;;;;;;;39.25;14.48;;;;;;;20.76;62.71;93734.53;4768484;30;20138;-94
2022/08/24 07:37:58;;;;;;;29.90;13.20;;;;;;;20.75;62.53;93738.53;4752175;30;20107;-89
2022/08/24 07:40:27;;;;;;;39.15;19.13;;;;;;;20.74;62.64;93739.81;4769309;30;20060;-90
2022/08/24 07:42:53;;;;;;;48.80;20.27;;;;;;;20.76;62.50;93744.78;4784798;29;20043;-92
2022/08/24 07:45:19;;;;;;;39.58;21.17;;;;;;;20.75;62.48;93741.28;4773867;29;20058;-90
2022/08/24 07:47:45;;;;;;;75.45;24.73;;;;;;;20.73;62.49;93738.31;4787146;29;20047;-88
2022/08/24 07:50:14;;;;;;;38.00;18.45;;;;;;;20.75;62.41;93746.78;4776494;29;21996;-93
2022/08/24 07:53:03;;;;;;;41.08;21.33;;;;;;;20.78;62.28;93745.75;4772050;29;20454;-90
2022/08/24 07:55:28;;;;;;;52.05;22.20;;;;;;;20.81;62.11;93746.69;4813219;29;20137;-93
2022/08/24 07:57:54;;;;;;;56.20;19.77;;;;;;;20.80;62.08;93748.69;4826340;29;20053;-91
2022/08/24 08:00:19;;;;;;;34.65;16.88;;;;;;;20.82;61.96;93748.19;4832762;29;20060;-91
2022/08/24 08:02:46;;;;;;;45.03;19.38;;;;;;;20.83;62.08;93747.66;4808065;29;20049;-93
2022/08/24 08:05:14;;;;;;;49.60;18.52;;;;;;;20.80;62.11;93745.94;4825709;29;20435;-89
2022/08/24 08:07:39;;;;;;;51.63;19.05;;;;;;;20.83;62.24;93742.16;4849112;29;20041;-89
2022/08/24 08:10:06;;;;;;;48.20;21.63;;;;;;;20.83;62.48;93752.41;4816519;29;20052;-93
2022/08/24 08:12:31;;;;;;;46.55;20.30;;;;;;;20.86;62.38;93754.13;4852093;23;20054;-90
2022/08/24 08:14:56;;;;;;;43.33;20.15;;;;;;;20.83;62.74;93761.41;4809632;29;20042;-91
2022/08/24 08:17:22;;;;;;;47.95;19.10;;;;;;;20.82;62.75;93761.91;4846089;29;20057;-90
2022/08/24 08:19:48;;;;;;;42.33;20.33;;;;;;;20.82;62.83;93759.91;4812325;29;20057;-90
2022/08/24 08:24:59;;;;;;;50.08;26.15;;;;;;;20.82;63.10;93750.94;4835417;29;20080;-89
2022/08/24 08:27:24;;;;;;;53.40;28.10;;;;;;;20.86;63.05;93752.13;4854458;29;20042;-89
2022/08/24 08:29:51;;;;;;;85.82;31.73;;;;;;;20.86;62.70;93757.63;4828414;29;20534;-91
2022/08/24 08:32:18;;;;;;;76.80;28.63;;;;;;;20.89;62.57;93764.09;4837156;29;20065;-89
2022/08/24 08:34:49;;;;;;;52.28;28.10;;;;;;;20.87;62.89;93764.59;4831015;29;20093;-94
2022/08/24 08:37:22;;;;;;;56.28;30.10;;;;;;;20.90;62.58;93762.09;4844594;29;20121;-94
2022/08/24 08:39:47;;;;;;;60.40;27.55;;;;;;;20.93;62.56;93774.78;4821512;29;20528;-94
2022/08/24 08:42:45;;;;;;;50.38;26.10;;;;;;;20.94;62.56;93773.53;4808450;29;20050;-94
2022/08/24 08:45:21;;;;;;;49.58;23.27;;;;;;;20.97;62.62;93776.00;4815204;29;20045;-92
2022/08/24 08:48:09;;;;;;;42.88;22.80;;;;;;;20.94;62.68;93779.78;4827952;29;20101;-91
2022/08/24 08:51:20;;;;;;;123.78;33.53;;;;;;;20.92;62.73;93774.06;4839994;29;20050;-92
2022/08/24 08:54:10;;;;;;;159.65;97.07;;;;;;;20.91;62.45;93769.81;4859948;29;20057;-90
2022/08/24 08:57:05;;;;;;;146.50;71.32;;;;;;;20.92;62.20;93774.06;4851339;29;20058;-92
2022/08/24 09:00:14;;;;;;;133.52;52.72;;;;;;;20.94;62.23;93776.28;4784567;29;20546;-92
2022/08/24 09:03:02;;;;;;;93.80;41.15;;;;;;;20.96;62.24;93779.25;4821668;29;20178;-92
2022/08/24 09:05:57;;;;;;;;;;;;;;;20.96;62.03;93784.75;4837720;29;20042;-93
2022/08/24 09:09:03;;;;;;;85.30;42.85;;;;;;;20.96;62.05;93782.00;4833300;29;19939;-94
2022/08/24 09:13:10;;;;;;;93.90;43.70;;;;;;;20.94;62.14;93788.03;4808941;29;20105;-92
2022/08/24 09:15:12;;;;;;;85.68;37.75;;;;;;;20.96;62.13;93785.50;4845447;29;20042;-91
2022/08/24 09:17:59;;;;;;;70.25;36.65;;;;;;;20.95;62.20;93781.25;4823488;29;20051;-96
2022/08/24 09:21:13;;;;;;;;;;;;;;;;;;;;;
2022/08/24 09:27:26;;;;;;;114.70;47.20;;;;;;;20.98;62.23;93784.97;4850626;23;20049;-95
2022/08/24 09:36:51;;;;;;;111.13;39.13;;;;;;;21.00;61.84;93782.47;4861640;23;20053;-96
2022/08/24 09:39:05;;;;;;;104.35;39.30;;;;;;;20.98;61.98;93782.22;4761611;29;20051;-94
2022/08/24 09:41:52;;;;;;;120.72;48.28;;;;;;;21.02;61.87;93779.91;4741909;29;20055;-93
2022/08/24 09:44:39;;;;;;;113.25;43.08;;;;;;;21.03;61.82;93781.41;4770841;29;20048;-93
2022/08/24 09:47:29;;;;;;;106.30;43.47;;;;;;;21.03;62.01;93784.91;4776700;30;20044;-92
2022/08/24 09:50:30;;;;;;;100.95;40.78;;;;;;;21.02;61.94;93777.91;4794864;29;20093;-92
2022/08/24 09:53:37;;;;;;;88.65;35.60;;;;;;;21.02;62.03;93777.16;4754275;30;20038;-93
2022/08/24 09:56:43;;;;;;;100.82;44.03;;;;;;;21.06;61.91;93785.88;4726027;30;20064;-93
2022/08/24 09:59:39;;;;;;;134.13;51.17;;;;;;;21.05;61.62;93776.13;4741420;30;20059;-92
2022/08/24 10:02:38;;;;;;;121.40;47.80;;;;;;;21.04;61.73;93785.63;4712002;30;20128;-92
2022/08/24 10:05:22;;;;;;;121.25;46.75;;;;;;;21.04;61.31;93783.63;4746412;30;20126;-93
2022/08/24 10:07:51;;;;;;;106.38;47.97;;;;;;;21.09;61.37;93768.34;4749833;30;20083;-93
2022/08/24 10:10:37;;;;;;;96.40;42.92;;;;;;;21.05;61.49;93776.88;4756141;29;20134;-93
2022/08/24 10:13:08;;;;;;;83.13;35.70;;;;;;;21.10;61.31;93769.81;4756960;30;20051;-95
2022/08/24 10:15:41;;;;;;;80.57;35.00;;;;;;;21.06;61.31;93772.88;4767940;30;20081;-93
2022/08/24 10:18:38;;;;;;;76.40;37.15;;;;;;;21.08;60.99;93767.59;4735701;30;20140;-92
2022/08/24 10:21:22;;;;;;;77.43;34.00;;;;;;;21.07;61.14;93763.34;4761930;29;20051;-93
2022/08/24 10:24:12;;;;;;;67.68;33.65;;;;;;;21.07;61.08;93763.34;4760901;29;20132;-93
2022/08/24 10:27:00;;;;;;;62.03;31.63;;;;;;;21.10;61.12;93778.81;4766569;30;20478;-93
2022/08/24 10:29:34;;;;;;;58.45;29.67;;;;;;;21.07;61.29;93773.59;4759188;29;20065;-95
2022/08/24 10:32:24;;;;;;;56.10;28.42;;;;;;;21.09;61.13;93777.31;4817926;29;20049;-95
2022/08/24 10:35:04;;;;;;;47.38;28.00;;;;;;;21.08;61.21;93778.59;4855347;29;20053;-93
2022/08/24 10:37:51;;;;;;;52.92;24.40;;;;;;;21.09;60.93;93771.81;4825220;29;20050;-93
2022/08/24 10:40:39;;;;;;;37.03;21.77;;;;;;;21.09;60.98;93779.34;4837902;29;20082;-93
2022/08/24 10:43:32;;;;;;;29.77;18.10;;;;;;;21.17;61.38;93766.50;4803168;29;20058;-93
2022/08/24 10:46:18;;;;;;;36.00;17.48;;;;;;;21.13;60.72;93769.53;4821961;29;20406;-93
2022/08/24 10:49:16;;;;;;;35.53;18.70;;;;;;;21.10;60.88;93764.31;4820279;29;20106;-91
2022/08/24 10:52:08;;;;;;;42.40;18.55;;;;;;;21.11;60.85;93761.06;4803788;29;20055;-92
2022/08/24 10:54:45;;;;;;;37.53;17.38;;;;;;;21.13;60.87;93760.53;4801892;29;20229;-89
2022/08/24 10:57:30;;;;;;;117.82;33.78;;;;;;;21.12;61.17;93757.03;4807367;29;20038;-91
2022/08/24 11:00:05;;;;;;;82.15;46.72;;;;;;;21.14;61.04;93767.53;4786270;29;20077;-91
2022/08/24 11:02:35;;;;;;;103.57;50.55;;;;;;;21.13;61.06;93766.78;4787525;29;20070;-91
2022/08/24 11:05:05;;;;;;;85.35;28.17;;;;;;;21.18;61.25;93765.97;4773322;29;20058;-91
2022/08/24 11:07:33;;;;;;;68.70;26.95;;;;;;;21.14;61.28;93762.78;4784890;29;20825;-93
2022/08/24 11:10:00;;;;;;;47.95;24.70;;;;;;;21.14;61.30;93768.28;4778238;29;20559;-95
2022/08/24 11:12:31;;;;;;;49.72;27.50;;;;;;;21.12;61.41;93768.03;4782190;29;20507;-92
2022/08/24 11:15:00;;;;;;;47.13;23.90;;;;;;;21.17;61.34;93772.72;4763552;29;20049;-93
2022/08/24 11:17:33;;;;;;;38.05;19.10;;;;;;;21.16;61.19;93770.50;4773836;29;20138;-92
2022/08/24 11:19:59;;;;;;;84.00;40.50;;;;;;;21.20;61.03;93776.47;4777764;29;20052;-94
2022/08/24 11:23:05;;;;;;;65.65;34.05;;;;;;;21.16;61.08;93762.25;4774720;29;20190;-89
2022/08/24 11:25:34;;;;;;;73.28;31.67;;;;;;;21.16;61.50;93774.00;4790533;29;20141;-90
2022/08/24 11:28:28;;;;;;;72.75;29.42;;;;;;;21.18;61.16;93778.97;4811615;29;20410;-90
2022/08/24 11:30:56;;;;;;;202.85;76.63;;;;;;;21.19;61.31;93778.47;4851003;29;20050;-94
2022/08/24 11:33:29;;;;;;;204.63;95.35;;;;;;;21.20;61.34;93781.97;4804767;29;20050;-92
2022/08/24 11:36:03;;;;;;;160.73;78.50;;;;;;;21.20;61.37;93788.22;4826182;29;20042;-93
2022/08/24 11:38:33;;;;;;;72.63;34.72;;;;;;;21.22;61.46;93778.72;4767346;29;20103;-91
2022/08/24 11:41:21;;;;;;;45.42;23.45;;;;;;;21.19;61.54;93780.47;4783943;29;20467;-93
2022/08/24 11:43:51;;;;;;;48.05;25.83;;;;;;;21.18;61.74;93768.72;4758463;29;20549;-92
2022/08/24 11:46:23;;;;;;;59.38;30.50;;;;;;;21.19;61.56;93769.47;4795292;29;20547;-93
2022/08/24 11:49:00;;;;;;;90.35;40.97;;;;;;;21.20;61.55;93776.47;4761687;30;20039;-93
2022/08/24 11:51:45;;;;;;;104.00;42.58;;;;;;;21.21;61.53;93772.47;4798348;29;20122;-92
2022/08/24 11:54:47;;;;;;;106.60;44.58;;;;;;;21.17;61.82;93780.97;4809265;29;20087;-89
2022/08/24 11:57:18;;;;;;;123.88;48.47;;;;;;;21.22;61.82;93770.47;4788266;29;20055;-91
2022/08/24 11:59:48;;;;;;;104.93;36.33;;;;;;;21.16;61.57;93785.00;4785064;29;20150;-89
2022/08/24 12:02:22;;;;;;;80.53;31.60;;;;;;;21.17;61.53;93785.72;4788630;29;20088;-91
2022/08/24 12:04:52;;;;;;;68.45;25.00;;;;;;;21.18;61.63;93781.72;4792208;29;20110;-88
2022/08/24 12:07:27;;;;;;;56.40;20.98;;;;;;;21.18;61.47;93784.47;4811213;29;20057;-88
2022/08/24 12:10:30;;;;;;;38.78;17.25;;;;;;;21.16;61.54;93789.75;4810264;29;20050;-91
2022/08/24 12:13:08;;;;;;;36.13;14.85;;;;;;;21.17;61.79;93783.72;4835711;29;20038;-94
2022/08/24 12:15:45;;;;;;;39.13;12.10;;;;;;;21.16;61.71;93784.25;4798677;29;20046;-92
2022/08/24 12:18:16;;;;;;;66.68;13.90;;;;;;;21.15;61.72;93780.00;4784638;29;20050;-92
2022/08/24 12:20:43;;;;;;;26.90;10.50;;;;;;;21.16;61.83;93782.25;4810591;29;20049;-89